Have a Safe July 4th! 

Flight Track Log - Related Links

Times and Time Zones

All times are in EDT time to prevent confusion due to time zone crossing. See the RPA3496 flight status page for this flight to view local times or setup timezone preferences in your user account.

Time Position Orientation Groundspeed Altitude Reporting Facility
EDT Latitude Longitude Course Direction KTS MPH feet Rate Location/Type
Wed 04:14:38 PM 40.7667 -73.8500 269° West 142 163 1,600  Level New York TRACON
Wed 04:15:38 PM 40.7167 -73.8333 166° South 202 232 3,700 2,684 Climbing New York TRACON
Wed 04:16:32 PM 40.7000 -73.8833 246° West 233 268 6,700 2,276 Climbing New York TRACON
Wed 04:18:03 PM 40.7872 -73.9642 325° Northwest 267 307 9,200 2,333 Climbing New York Center
Wed 04:18:38 PM 40.8167 -74.0000 317° Northwest 270 311 11,600 3,411 Climbing New York TRACON
Wed 04:19:38 PM 40.8167 -74.1000 270° West 272 313 14,600 1,750 Climbing New York TRACON
Wed 04:20:00 PM 40.7658 -74.4499 269° West  Level Estimated
Wed 04:20:38 PM 40.8000 -74.2000 258° West 311 358 15,100  Level New York TRACON
Wed 04:21:38 PM 40.8000 -74.3167 270° West 316 364 15,400 900 Climbing New York TRACON
Wed 04:22:38 PM 40.8000 -74.4333 270° West 346 398 16,900 653 Climbing New York TRACON
Wed 04:24:05 PM 40.8056 -74.6036 273° West 372 428 17,000 41 Climbing New York Center
Wed 04:25:03 PM 40.8053 -74.7433 270° West 359 413 17,000 610 Level New York Center
Wed 04:26:03 PM 40.8053 -74.8614 270° West 359 413 18,200 1,488 Climbing New York Center
Wed 04:27:04 PM 40.8044 -75.0039 270° West 359 413 20,000 1,700 Climbing New York Center
Wed 04:28:03 PM 40.8017 -75.1353 268° West 365 420 21,600 1,513 Climbing New York Center
Wed 04:29:03 PM 40.7797 -75.2764 258° West 365 420 23,000 689 Climbing New York Center
Wed 04:30:05 PM 40.7536 -75.4117 256° West 377 434 23,000  Level New York Center
Wed 04:31:02 PM 40.7136 -75.5294 246° West 388 447 23,000 305 Level New York Center
Wed 04:32:03 PM 40.6647 -75.6544 243° Southwest 393 452 23,600 744 Climbing New York Center
Wed 04:33:03 PM 40.6175 -75.7881 245° Southwest 393 452 24,500 1,250 Climbing New York Center
Wed 04:34:03 PM 40.5569 -75.9339 241° Southwest 400 460 26,100 1,388 Climbing New York Center
Wed 04:35:04 PM 40.5072 -76.0692 244° Southwest 410 472 27,300 958 Climbing New York Center
Wed 04:36:02 PM 40.4553 -76.2072 244° Southwest 416 479 28,000 350 Climbing New York Center
Wed 04:37:04 PM 40.4008 -76.3419 242° Southwest 416 479 28,000  Level New York Center
Wed 04:38:03 PM 40.3603 -76.4503 244° Southwest 416 479 28,000  Level New York Center
Wed 04:39:04 PM 40.3144 -76.6236 251° West 416 479 28,000  Level New York Center
Wed 04:40:02 PM 40.2781 -76.7675 252° West 416 479 28,000  Level New York Center
Wed 04:41:03 PM 40.2394 -76.9108 251° West 416 479 28,000  Level New York Center
Wed 04:42:04 PM 40.2047 -77.0547 253° West 416 479 28,000  Level New York Center
Wed 04:43:04 PM 40.1675 -77.2008 252° West 421 484 28,000 -333 Level New York Center
Wed 04:44:46 PM 40.1064 -77.4406 252° West 419 482 27,100 -982 Descending Cleveland Center
Wed 04:45:49 PM 40.0692 -77.5822 251° West 418 481 25,300 -1,728 Descending Cleveland Center
Wed 04:46:51 PM 40.0336 -77.7203 251° West 410 472 23,500 -1,597 Descending Cleveland Center
Wed 04:47:53 PM 39.9989 -77.8514 251° West 395 455 22,000 -726 Descending Cleveland Center
Wed 04:48:55 PM 39.9728 -78.0086 258° West 381 438 22,000  Level Cleveland Center
Wed 04:49:57 PM 39.9792 -78.1436 274° West 378 435 22,000  Level Cleveland Center
Wed 04:50:59 PM 39.9986 -78.2831 280° West 375 432 22,000  Level Cleveland Center
Wed 04:52:01 PM 40.0175 -78.4142 281° West 374 430 22,000  Level Cleveland Center
Wed 04:53:03 PM 40.0358 -78.5433 281° West 370 426 22,000  Level Cleveland Center
Wed 04:54:05 PM 40.0542 -78.6711 281° West 366 421 22,000 -384 Level Cleveland Center
Wed 04:55:08 PM 40.0722 -78.8011 280° West 366 421 21,200 -1,296 Descending Cleveland Center
Wed 04:56:10 PM 40.0928 -78.9544 280° West 360 414 19,300 -1,645 Descending Cleveland Center
Wed 04:57:12 PM 40.1097 -79.0783 280° West 347 399 17,800 -1,355 Descending Cleveland Center
Wed 04:58:14 PM 40.1267 -79.1964 281° West 337 388 16,500 -1,403 Descending Cleveland Center
Wed 04:59:16 PM 40.1433 -79.3150 280° West 330 380 14,900 -1,500 Descending Cleveland Center
Wed 05:00:18 PM 40.1578 -79.4306 279° West 328 377 13,400 -1,355 Descending Cleveland Center
Wed 05:01:20 PM 40.1719 -79.5356 280° West 298 343 12,100 -1,403 Descending Cleveland Center
Wed 05:02:22 PM 40.1892 -79.6614 280° West 296 341 10,500 -1,008 Descending Cleveland Center
Wed 05:03:25 PM 40.2178 -79.7567 291° West 287 330 10,000 -240 Descending Cleveland Center
Wed 05:04:27 PM 40.2614 -79.8436 303° West 288 331 10,000  Level Cleveland Center
Wed 05:05:29 PM 40.3036 -79.9300 303° West 287 330 10,000 -774 Level Cleveland Center
Wed 05:06:31 PM 40.3494 -80.0211 303° West 265 305 8,400 -1,742 Descending Cleveland Center
Wed 05:07:33 PM 40.3903 -80.0989 305° West 262 302 6,400 -1,161 Descending Cleveland Center
Wed 05:08:35 PM 40.4072 -80.1931 283° West 265 305 6,000 -774 Descending Cleveland Center
Wed 05:09:37 PM 40.4239 -80.2792 284° West 263 303 4,800 -1,452 Descending Cleveland Center
Wed 05:10:39 PM 40.4408 -80.3703 284° West 262 302 3,000 -864 Descending Cleveland Center
Wed 05:11:42 PM 40.4739 -80.4403 302° West 231 266 3,000  Level Cleveland Center
Wed 05:12:44 PM 40.5056 -80.4003 44° Northeast 202 232 3,000 -339 Level Cleveland Center
Wed 05:13:46 PM 40.5042 -80.3419 92° East 176 203 2,300 -677 Descending Cleveland Center
Wed 05:14:48 PM 40.5022 -80.2947 93° East 151 174 1,600 -677 Descending Cleveland Center

Login

Don't have an account? Register now (free) for customized features, flight alerts, and more!